sensor_id;sensor_type;location;lat;lon;timestamp;temperature;humidity
4201;DHT22;2114;50.398;8.814;2023-03-31T00:00:23;11.00;99.90
4201;DHT22;2114;50.398;8.814;2023-03-31T00:05:25;11.00;99.90
4201;DHT22;2114;50.398;8.814;2023-03-31T00:10:27;11.00;99.90
4201;DHT22;2114;50.398;8.814;2023-03-31T00:15:28;11.00;99.90
4201;DHT22;2114;50.398;8.814;2023-03-31T00:20:29;11.00;99.90
4201;DHT22;2114;50.398;8.814;2023-03-31T00:25:32;11.00;99.90
4201;DHT22;2114;50.398;8.814;2023-03-31T00:30:33;11.00;99.90
4201;DHT22;2114;50.398;8.814;2023-03-31T00:35:34;11.00;99.90
4201;DHT22;2114;50.398;8.814;2023-03-31T00:40:44;10.90;99.90
4201;DHT22;2114;50.398;8.814;2023-03-31T00:45:45;10.90;99.90
4201;DHT22;2114;50.398;8.814;2023-03-31T00:50:53;10.90;99.90
4201;DHT22;2114;50.398;8.814;2023-03-31T00:55:56;10.90;99.90
4201;DHT22;2114;50.398;8.814;2023-03-31T01:01:00;10.90;99.90
4201;DHT22;2114;50.398;8.814;2023-03-31T01:06:04;10.80;99.90
4201;DHT22;2114;50.398;8.814;2023-03-31T01:11:08;10.80;99.90
4201;DHT22;2114;50.398;8.814;2023-03-31T01:16:09;10.80;99.90
4201;DHT22;2114;50.398;8.814;2023-03-31T01:21:37;10.80;99.90
4201;DHT22;2114;50.398;8.814;2023-03-31T01:32:25;10.70;99.90
4201;DHT22;2114;50.398;8.814;2023-03-31T01:48:14;10.70;99.90
4201;DHT22;2114;50.398;8.814;2023-03-31T01:58:26;10.70;99.90
4201;DHT22;2114;50.398;8.814;2023-03-31T02:03:39;10.70;99.90
4201;DHT22;2114;50.398;8.814;2023-03-31T02:08:53;10.60;99.90
4201;DHT22;2114;50.398;8.814;2023-03-31T02:13:56;10.60;99.90
4201;DHT22;2114;50.398;8.814;2023-03-31T02:19:03;10.50;99.90
4201;DHT22;2114;50.398;8.814;2023-03-31T02:24:08;10.50;99.90
4201;DHT22;2114;50.398;8.814;2023-03-31T02:29:10;10.50;99.90
4201;DHT22;2114;50.398;8.814;2023-03-31T02:34:11;10.50;99.90
4201;DHT22;2114;50.398;8.814;2023-03-31T02:39:15;10.50;99.90
4201;DHT22;2114;50.398;8.814;2023-03-31T02:44:17;10.50;99.90
4201;DHT22;2114;50.398;8.814;2023-03-31T02:49:18;10.50;99.90
4201;DHT22;2114;50.398;8.814;2023-03-31T02:59:47;10.40;99.90
4201;DHT22;2114;50.398;8.814;2023-03-31T03:05:02;10.30;99.90
4201;DHT22;2114;50.398;8.814;2023-03-31T03:10:19;10.30;99.90
4201;DHT22;2114;50.398;8.814;2023-03-31T03:15:27;10.20;99.90
4201;DHT22;2114;50.398;8.814;2023-03-31T03:20:30;10.20;99.90
4201;DHT22;2114;50.398;8.814;2023-03-31T03:25:33;10.20;99.90
4201;DHT22;2114;50.398;8.814;2023-03-31T03:30:34;10.20;99.90
4201;DHT22;2114;50.398;8.814;2023-03-31T03:35:35;10.20;99.90
4201;DHT22;2114;50.398;8.814;2023-03-31T03:40:35;10.20;99.90
4201;DHT22;2114;50.398;8.814;2023-03-31T03:45:36;10.20;99.90
4201;DHT22;2114;50.398;8.814;2023-03-31T03:50:36;10.20;99.90
4201;DHT22;2114;50.398;8.814;2023-03-31T03:55:37;10.10;99.90
4201;DHT22;2114;50.398;8.814;2023-03-31T04:00:38;10.10;99.90
4201;DHT22;2114;50.398;8.814;2023-03-31T04:05:39;10.10;99.90
4201;DHT22;2114;50.398;8.814;2023-03-31T04:10:43;10.10;99.90
4201;DHT22;2114;50.398;8.814;2023-03-31T04:15:45;10.10;99.90
4201;DHT22;2114;50.398;8.814;2023-03-31T04:20:45;10.10;99.90
4201;DHT22;2114;50.398;8.814;2023-03-31T04:25:53;10.10;99.90
4201;DHT22;2114;50.398;8.814;2023-03-31T04:30:54;10.10;99.90
4201;DHT22;2114;50.398;8.814;2023-03-31T04:35:58;10.00;99.90
4201;DHT22;2114;50.398;8.814;2023-03-31T04:41:05;10.00;99.90
4201;DHT22;2114;50.398;8.814;2023-03-31T04:46:07;10.00;99.90
4201;DHT22;2114;50.398;8.814;2023-03-31T04:51:08;10.00;99.90
4201;DHT22;2114;50.398;8.814;2023-03-31T04:56:09;9.90;99.90
4201;DHT22;2114;50.398;8.814;2023-03-31T05:01:10;9.90;99.90
4201;DHT22;2114;50.398;8.814;2023-03-31T05:06:16;9.90;99.90
4201;DHT22;2114;50.398;8.814;2023-03-31T05:11:16;9.90;99.90
4201;DHT22;2114;50.398;8.814;2023-03-31T05:16:17;9.90;99.90
4201;DHT22;2114;50.398;8.814;2023-03-31T05:21:19;9.90;99.90
4201;DHT22;2114;50.398;8.814;2023-03-31T05:26:20;9.90;99.90
4201;DHT22;2114;50.398;8.814;2023-03-31T05:31:22;9.90;99.90
4201;DHT22;2114;50.398;8.814;2023-03-31T05:36:22;9.90;99.90
4201;DHT22;2114;50.398;8.814;2023-03-31T05:41:23;9.90;99.90
4201;DHT22;2114;50.398;8.814;2023-03-31T05:46:24;9.90;99.90
4201;DHT22;2114;50.398;8.814;2023-03-31T05:51:26;9.90;99.90
4201;DHT22;2114;50.398;8.814;2023-03-31T05:56:26;9.90;99.90
4201;DHT22;2114;50.398;8.814;2023-03-31T06:01:27;9.90;99.90
4201;DHT22;2114;50.398;8.814;2023-03-31T06:06:29;9.90;99.90
4201;DHT22;2114;50.398;8.814;2023-03-31T06:11:29;9.90;99.90
4201;DHT22;2114;50.398;8.814;2023-03-31T06:16:30;9.90;99.90
4201;DHT22;2114;50.398;8.814;2023-03-31T06:21:31;9.90;99.90
4201;DHT22;2114;50.398;8.814;2023-03-31T06:26:32;9.80;99.90
4201;DHT22;2114;50.398;8.814;2023-03-31T06:31:32;9.90;99.90
4201;DHT22;2114;50.398;8.814;2023-03-31T06:36:33;9.80;99.90
4201;DHT22;2114;50.398;8.814;2023-03-31T06:41:33;9.80;99.90
4201;DHT22;2114;50.398;8.814;2023-03-31T06:46:34;9.80;99.90
4201;DHT22;2114;50.398;8.814;2023-03-31T06:51:35;9.80;99.90
4201;DHT22;2114;50.398;8.814;2023-03-31T06:56:35;9.80;99.90
4201;DHT22;2114;50.398;8.814;2023-03-31T07:01:36;9.90;99.90
4201;DHT22;2114;50.398;8.814;2023-03-31T07:06:38;9.90;99.90
4201;DHT22;2114;50.398;8.814;2023-03-31T07:11:38;9.90;99.90
4201;DHT22;2114;50.398;8.814;2023-03-31T07:16:39;9.90;99.90
4201;DHT22;2114;50.398;8.814;2023-03-31T07:21:39;9.90;99.90
4201;DHT22;2114;50.398;8.814;2023-03-31T07:26:40;10.00;99.90
4201;DHT22;2114;50.398;8.814;2023-03-31T07:31:41;10.00;99.90
4201;DHT22;2114;50.398;8.814;2023-03-31T07:36:42;10.10;99.90
4201;DHT22;2114;50.398;8.814;2023-03-31T07:41:43;10.10;99.90
4201;DHT22;2114;50.398;8.814;2023-03-31T07:46:43;10.10;99.90
4201;DHT22;2114;50.398;8.814;2023-03-31T07:51:44;10.10;99.90
4201;DHT22;2114;50.398;8.814;2023-03-31T07:56:45;10.10;99.90
4201;DHT22;2114;50.398;8.814;2023-03-31T08:01:46;10.10;99.90
4201;DHT22;2114;50.398;8.814;2023-03-31T08:06:46;10.10;99.90
4201;DHT22;2114;50.398;8.814;2023-03-31T08:11:49;10.20;99.90
4201;DHT22;2114;50.398;8.814;2023-03-31T08:17:07;10.30;99.90
4201;DHT22;2114;50.398;8.814;2023-03-31T08:22:56;10.40;99.90
4201;DHT22;2114;50.398;8.814;2023-03-31T08:34:06;10.60;99.90
4201;DHT22;2114;50.398;8.814;2023-03-31T08:39:07;10.80;99.90
4201;DHT22;2114;50.398;8.814;2023-03-31T08:44:31;11.00;99.90
4201;DHT22;2114;50.398;8.814;2023-03-31T08:49:41;11.20;99.90
4201;DHT22;2114;50.398;8.814;2023-03-31T08:54:46;11.40;99.90
4201;DHT22;2114;50.398;8.814;2023-03-31T08:59:49;11.70;99.90
4201;DHT22;2114;50.398;8.814;2023-03-31T09:10:48;12.00;99.90
4201;DHT22;2114;50.398;8.814;2023-03-31T09:21:16;12.60;99.90
4201;DHT22;2114;50.398;8.814;2023-03-31T09:31:34;13.00;99.90
4201;DHT22;2114;50.398;8.814;2023-03-31T09:36:35;13.10;99.90
4201;DHT22;2114;50.398;8.814;2023-03-31T09:41:35;13.40;99.90
4201;DHT22;2114;50.398;8.814;2023-03-31T09:46:36;13.60;99.90
4201;DHT22;2114;50.398;8.814;2023-03-31T09:51:41;14.10;99.90
4201;DHT22;2114;50.398;8.814;2023-03-31T09:56:47;14.00;99.90
4201;DHT22;2114;50.398;8.814;2023-03-31T10:01:51;14.10;99.90
4201;DHT22;2114;50.398;8.814;2023-03-31T10:06:54;14.70;99.90
4201;DHT22;2114;50.398;8.814;2023-03-31T10:12:06;15.20;99.90
4201;DHT22;2114;50.398;8.814;2023-03-31T10:17:15;15.40;99.90
4201;DHT22;2114;50.398;8.814;2023-03-31T10:27:28;15.30;99.90
4201;DHT22;2114;50.398;8.814;2023-03-31T10:32:33;15.20;99.90
4201;DHT22;2114;50.398;8.814;2023-03-31T10:37:39;15.10;99.90
4201;DHT22;2114;50.398;8.814;2023-03-31T10:42:40;14.90;99.90
4201;DHT22;2114;50.398;8.814;2023-03-31T10:47:48;14.60;99.90
4201;DHT22;2114;50.398;8.814;2023-03-31T10:52:49;14.20;99.90
4201;DHT22;2114;50.398;8.814;2023-03-31T11:03:33;13.20;99.90
4201;DHT22;2114;50.398;8.814;2023-03-31T11:14:19;12.30;99.90
4201;DHT22;2114;50.398;8.814;2023-03-31T11:31:14;12.70;99.90
4201;DHT22;2114;50.398;8.814;2023-03-31T11:36:48;13.30;99.90
4201;DHT22;2114;50.398;8.814;2023-03-31T11:42:15;14.10;99.90
4201;DHT22;2114;50.398;8.814;2023-03-31T11:47:27;14.60;99.90
4201;DHT22;2114;50.398;8.814;2023-03-31T11:52:33;14.70;99.90
4201;DHT22;2114;50.398;8.814;2023-03-31T11:57:38;14.70;99.90
4201;DHT22;2114;50.398;8.814;2023-03-31T12:02:58;14.70;99.90
4201;DHT22;2114;50.398;8.814;2023-03-31T12:18:48;15.20;99.90
4201;DHT22;2114;50.398;8.814;2023-03-31T12:23:56;15.10;99.90
4201;DHT22;2114;50.398;8.814;2023-03-31T12:34:04;14.80;99.90
4201;DHT22;2114;50.398;8.814;2023-03-31T12:39:20;14.30;99.90
4201;DHT22;2114;50.398;8.814;2023-03-31T12:44:47;13.80;99.90
4201;DHT22;2114;50.398;8.814;2023-03-31T12:50:18;13.50;99.90
4201;DHT22;2114;50.398;8.814;2023-03-31T12:55:45;13.40;99.90
4201;DHT22;2114;50.398;8.814;2023-03-31T13:06:44;13.70;99.90
4201;DHT22;2114;50.398;8.814;2023-03-31T13:16:35;14.90;99.90
4201;DHT22;2114;50.398;8.814;2023-03-31T13:21:53;15.00;99.90
4201;DHT22;2114;50.398;8.814;2023-03-31T13:26:55;14.90;99.90
4201;DHT22;2114;50.398;8.814;2023-03-31T13:54:29;13.60;99.90
4201;DHT22;2114;50.398;8.814;2023-03-31T13:59:39;13.40;99.90
4201;DHT22;2114;50.398;8.814;2023-03-31T14:04:59;13.60;99.90
4201;DHT22;2114;50.398;8.814;2023-03-31T14:10:01;13.70;99.90
4201;DHT22;2114;50.398;8.814;2023-03-31T14:15:05;13.80;99.90
4201;DHT22;2114;50.398;8.814;2023-03-31T14:36:54;13.20;99.90
4201;DHT22;2114;50.398;8.814;2023-03-31T14:42:01;12.70;99.90
4201;DHT22;2114;50.398;8.814;2023-03-31T14:47:04;12.60;99.90
4201;DHT22;2114;50.398;8.814;2023-03-31T14:52:17;12.90;99.90
4201;DHT22;2114;50.398;8.814;2023-03-31T14:57:21;13.40;99.90
4201;DHT22;2114;50.398;8.814;2023-03-31T15:02:31;13.70;99.90
4201;DHT22;2114;50.398;8.814;2023-03-31T15:07:34;13.80;99.90
4201;DHT22;2114;50.398;8.814;2023-03-31T15:12:35;13.90;99.90
4201;DHT22;2114;50.398;8.814;2023-03-31T15:17:39;13.90;99.90
4201;DHT22;2114;50.398;8.814;2023-03-31T15:22:40;13.90;99.90
4201;DHT22;2114;50.398;8.814;2023-03-31T15:27:50;13.90;99.90
4201;DHT22;2114;50.398;8.814;2023-03-31T15:32:52;13.80;99.90
4201;DHT22;2114;50.398;8.814;2023-03-31T15:37:54;13.70;99.90
4201;DHT22;2114;50.398;8.814;2023-03-31T15:43:05;13.50;99.90
4201;DHT22;2114;50.398;8.814;2023-03-31T15:48:18;13.30;99.90
4201;DHT22;2114;50.398;8.814;2023-03-31T15:53:49;12.80;99.90
4201;DHT22;2114;50.398;8.814;2023-03-31T15:58:57;12.30;99.90
4201;DHT22;2114;50.398;8.814;2023-03-31T16:04:00;11.90;99.90
4201;DHT22;2114;50.398;8.814;2023-03-31T16:09:13;11.80;99.90
4201;DHT22;2114;50.398;8.814;2023-03-31T16:14:17;11.80;99.90
4201;DHT22;2114;50.398;8.814;2023-03-31T16:19:21;11.90;99.90
4201;DHT22;2114;50.398;8.814;2023-03-31T16:24:31;12.00;99.90
4201;DHT22;2114;50.398;8.814;2023-03-31T16:29:33;12.10;99.90
4201;DHT22;2114;50.398;8.814;2023-03-31T16:34:34;12.20;99.90
4201;DHT22;2114;50.398;8.814;2023-03-31T16:39:50;12.30;99.90
4201;DHT22;2114;50.398;8.814;2023-03-31T16:44:51;12.40;99.90
4201;DHT22;2114;50.398;8.814;2023-03-31T16:49:52;12.40;99.90
4201;DHT22;2114;50.398;8.814;2023-03-31T16:54:52;12.40;99.90
4201;DHT22;2114;50.398;8.814;2023-03-31T16:59:53;12.40;99.90
4201;DHT22;2114;50.398;8.814;2023-03-31T17:04:54;12.60;99.90
4201;DHT22;2114;50.398;8.814;2023-03-31T17:09:55;12.70;99.90
4201;DHT22;2114;50.398;8.814;2023-03-31T17:14:55;12.70;99.90
4201;DHT22;2114;50.398;8.814;2023-03-31T17:19:56;12.70;99.90
4201;DHT22;2114;50.398;8.814;2023-03-31T17:24:58;12.60;99.90
4201;DHT22;2114;50.398;8.814;2023-03-31T17:29:59;12.60;99.90
4201;DHT22;2114;50.398;8.814;2023-03-31T17:35:00;12.60;99.90
4201;DHT22;2114;50.398;8.814;2023-03-31T17:40:03;12.50;99.90
4201;DHT22;2114;50.398;8.814;2023-03-31T17:45:04;12.40;99.90
4201;DHT22;2114;50.398;8.814;2023-03-31T17:50:05;12.40;99.90
4201;DHT22;2114;50.398;8.814;2023-03-31T17:55:08;12.40;99.90
4201;DHT22;2114;50.398;8.814;2023-03-31T18:00:09;12.30;99.90
4201;DHT22;2114;50.398;8.814;2023-03-31T18:05:10;12.30;99.90
4201;DHT22;2114;50.398;8.814;2023-03-31T18:10:11;12.20;99.90
4201;DHT22;2114;50.398;8.814;2023-03-31T18:15:11;12.20;99.90
4201;DHT22;2114;50.398;8.814;2023-03-31T18:20:12;12.10;99.90
4201;DHT22;2114;50.398;8.814;2023-03-31T18:25:13;12.10;99.90
4201;DHT22;2114;50.398;8.814;2023-03-31T18:30:14;12.00;99.90
4201;DHT22;2114;50.398;8.814;2023-03-31T18:35:15;11.90;99.90
4201;DHT22;2114;50.398;8.814;2023-03-31T18:40:16;11.90;99.90
4201;DHT22;2114;50.398;8.814;2023-03-31T18:45:17;11.90;99.90
4201;DHT22;2114;50.398;8.814;2023-03-31T18:50:18;11.80;99.90
4201;DHT22;2114;50.398;8.814;2023-03-31T18:55:18;11.80;99.90
4201;DHT22;2114;50.398;8.814;2023-03-31T19:00:19;11.70;99.90
4201;DHT22;2114;50.398;8.814;2023-03-31T19:05:20;11.70;99.90
4201;DHT22;2114;50.398;8.814;2023-03-31T19:10:20;11.70;99.90
4201;DHT22;2114;50.398;8.814;2023-03-31T19:15:21;11.60;99.90
4201;DHT22;2114;50.398;8.814;2023-03-31T19:20:22;11.60;99.90
4201;DHT22;2114;50.398;8.814;2023-03-31T19:25:23;11.60;99.90
4201;DHT22;2114;50.398;8.814;2023-03-31T19:30:23;11.60;99.90
4201;DHT22;2114;50.398;8.814;2023-03-31T19:35:24;11.50;99.90
4201;DHT22;2114;50.398;8.814;2023-03-31T19:40:26;11.50;99.90
4201;DHT22;2114;50.398;8.814;2023-03-31T19:45:27;11.40;99.90
4201;DHT22;2114;50.398;8.814;2023-03-31T19:50:27;11.40;99.90
4201;DHT22;2114;50.398;8.814;2023-03-31T19:55:28;11.30;99.90
4201;DHT22;2114;50.398;8.814;2023-03-31T20:00:28;11.20;99.90
4201;DHT22;2114;50.398;8.814;2023-03-31T20:05:30;11.20;99.90
4201;DHT22;2114;50.398;8.814;2023-03-31T20:10:31;11.20;99.90
4201;DHT22;2114;50.398;8.814;2023-03-31T20:15:32;11.10;99.90
4201;DHT22;2114;50.398;8.814;2023-03-31T20:20:33;11.00;99.90
4201;DHT22;2114;50.398;8.814;2023-03-31T20:25:34;11.00;99.90
4201;DHT22;2114;50.398;8.814;2023-03-31T20:30:37;10.90;99.90
4201;DHT22;2114;50.398;8.814;2023-03-31T20:35:37;10.90;99.90
4201;DHT22;2114;50.398;8.814;2023-03-31T20:40:38;10.80;99.90
4201;DHT22;2114;50.398;8.814;2023-03-31T20:45:40;10.80;99.90
4201;DHT22;2114;50.398;8.814;2023-03-31T20:50:40;10.70;99.90
4201;DHT22;2114;50.398;8.814;2023-03-31T20:55:41;10.70;99.90
4201;DHT22;2114;50.398;8.814;2023-03-31T21:00:42;10.60;99.90
4201;DHT22;2114;50.398;8.814;2023-03-31T21:05:44;10.60;99.90
4201;DHT22;2114;50.398;8.814;2023-03-31T21:10:45;10.60;99.90
4201;DHT22;2114;50.398;8.814;2023-03-31T21:15:47;10.60;99.90
4201;DHT22;2114;50.398;8.814;2023-03-31T21:20:55;10.60;99.90
4201;DHT22;2114;50.398;8.814;2023-03-31T21:25:59;10.50;99.90
4201;DHT22;2114;50.398;8.814;2023-03-31T21:31:06;10.50;99.90
4201;DHT22;2114;50.398;8.814;2023-03-31T21:36:09;10.40;99.90
4201;DHT22;2114;50.398;8.814;2023-03-31T21:41:12;10.40;99.90
4201;DHT22;2114;50.398;8.814;2023-03-31T21:46:17;10.40;99.90
4201;DHT22;2114;50.398;8.814;2023-03-31T21:51:19;10.40;99.90
4201;DHT22;2114;50.398;8.814;2023-03-31T21:56:22;10.30;99.90
4201;DHT22;2114;50.398;8.814;2023-03-31T22:01:23;10.30;99.90
4201;DHT22;2114;50.398;8.814;2023-03-31T22:06:24;10.30;99.90
4201;DHT22;2114;50.398;8.814;2023-03-31T22:11:25;10.20;99.90
4201;DHT22;2114;50.398;8.814;2023-03-31T22:16:27;10.20;99.90
4201;DHT22;2114;50.398;8.814;2023-03-31T22:21:28;10.20;99.90
4201;DHT22;2114;50.398;8.814;2023-03-31T22:26:29;10.20;99.90
4201;DHT22;2114;50.398;8.814;2023-03-31T22:31:30;10.10;99.90
4201;DHT22;2114;50.398;8.814;2023-03-31T22:36:31;10.10;99.90
4201;DHT22;2114;50.398;8.814;2023-03-31T22:41:31;10.10;99.90
4201;DHT22;2114;50.398;8.814;2023-03-31T22:46:32;10.10;99.90
4201;DHT22;2114;50.398;8.814;2023-03-31T22:51:33;10.10;99.90
4201;DHT22;2114;50.398;8.814;2023-03-31T22:56:34;10.10;99.90
4201;DHT22;2114;50.398;8.814;2023-03-31T23:01:35;10.00;99.90
4201;DHT22;2114;50.398;8.814;2023-03-31T23:06:35;10.00;99.90
4201;DHT22;2114;50.398;8.814;2023-03-31T23:11:36;10.00;99.90
4201;DHT22;2114;50.398;8.814;2023-03-31T23:16:37;10.00;99.90
4201;DHT22;2114;50.398;8.814;2023-03-31T23:21:38;10.00;99.90
4201;DHT22;2114;50.398;8.814;2023-03-31T23:26:38;10.00;99.90
4201;DHT22;2114;50.398;8.814;2023-03-31T23:31:39;9.90;99.90
4201;DHT22;2114;50.398;8.814;2023-03-31T23:36:40;9.90;99.90
4201;DHT22;2114;50.398;8.814;2023-03-31T23:41:41;9.90;99.90
4201;DHT22;2114;50.398;8.814;2023-03-31T23:46:41;9.90;99.90
4201;DHT22;2114;50.398;8.814;2023-03-31T23:51:43;9.90;99.90
4201;DHT22;2114;50.398;8.814;2023-03-31T23:56:44;9.90;99.90
